sensor_id;sensor_type;location;lat;lon;timestamp;P1;P2;P0
59546;PMS5003;45368;55.002;-1.592;2023-03-31T00:00:34;9;5;
59546;PMS5003;45368;55.002;-1.592;2023-03-31T00:03:06;11;8;
59546;PMS5003;45368;55.002;-1.592;2023-03-31T00:05:43;12;5;
59546;PMS5003;45368;55.002;-1.592;2023-03-31T00:08:54;12;10;
59546;PMS5003;45368;55.002;-1.592;2023-03-31T00:11:26;9;7;
59546;PMS5003;45368;55.002;-1.592;2023-03-31T00:13:54;7;7;
59546;PMS5003;45368;55.002;-1.592;2023-03-31T00:17:14;11;8;
59546;PMS5003;45368;55.002;-1.592;2023-03-31T00:20:25;12;9;
59546;PMS5003;45368;55.002;-1.592;2023-03-31T00:22:55;11;10;
59546;PMS5003;45368;55.002;-1.592;2023-03-31T00:25:23;14;10;
59546;PMS5003;45368;55.002;-1.592;2023-03-31T00:27:50;8;7;
59546;PMS5003;45368;55.002;-1.592;2023-03-31T00:30:17;12;8;
59546;PMS5003;45368;55.002;-1.592;2023-03-31T00:32:45;9;7;
59546;PMS5003;45368;55.002;-1.592;2023-03-31T00:35:12;10;9;
59546;PMS5003;45368;55.002;-1.592;2023-03-31T00:37:39;14;8;
59546;PMS5003;45368;55.002;-1.592;2023-03-31T00:40:07;13;8;
59546;PMS5003;45368;55.002;-1.592;2023-03-31T00:42:38;9;8;
59546;PMS5003;45368;55.002;-1.592;2023-03-31T00:45:26;9;7;
59546;PMS5003;45368;55.002;-1.592;2023-03-31T00:47:55;6;6;
59546;PMS5003;45368;55.002;-1.592;2023-03-31T00:50:30;11;8;
59546;PMS5003;45368;55.002;-1.592;2023-03-31T00:53:01;8;6;
59546;PMS5003;45368;55.002;-1.592;2023-03-31T00:55:33;5;4;
59546;PMS5003;45368;55.002;-1.592;2023-03-31T00:58:03;8;6;
59546;PMS5003;45368;55.002;-1.592;2023-03-31T01:00:33;5;3;
59546;PMS5003;45368;55.002;-1.592;2023-03-31T01:03:02;5;4;
59546;PMS5003;45368;55.002;-1.592;2023-03-31T01:05:33;7;6;
59546;PMS5003;45368;55.002;-1.592;2023-03-31T01:08:03;6;5;
59546;PMS5003;45368;55.002;-1.592;2023-03-31T01:10:33;6;4;
59546;PMS5003;45368;55.002;-1.592;2023-03-31T01:13:04;6;5;
59546;PMS5003;45368;55.002;-1.592;2023-03-31T01:15:35;9;5;
59546;PMS5003;45368;55.002;-1.592;2023-03-31T01:18:02;5;4;
59546;PMS5003;45368;55.002;-1.592;2023-03-31T01:20:32;4;3;
59546;PMS5003;45368;55.002;-1.592;2023-03-31T01:23:21;4;4;
59546;PMS5003;45368;55.002;-1.592;2023-03-31T01:26:26;8;4;
59546;PMS5003;45368;55.002;-1.592;2023-03-31T01:29:13;7;5;
59546;PMS5003;45368;55.002;-1.592;2023-03-31T01:32:00;5;3;
59546;PMS5003;45368;55.002;-1.592;2023-03-31T01:34:51;5;4;
59546;PMS5003;45368;55.002;-1.592;2023-03-31T01:37:40;3;3;
59546;PMS5003;45368;55.002;-1.592;2023-03-31T01:42:45;4;3;
59546;PMS5003;45368;55.002;-1.592;2023-03-31T01:45:24;6;3;
59546;PMS5003;45368;55.002;-1.592;2023-03-31T01:48:01;9;5;
59546;PMS5003;45368;55.002;-1.592;2023-03-31T01:50:33;7;4;
59546;PMS5003;45368;55.002;-1.592;2023-03-31T01:53:04;9;8;
59546;PMS5003;45368;55.002;-1.592;2023-03-31T01:55:40;9;8;
59546;PMS5003;45368;55.002;-1.592;2023-03-31T01:58:12;17;11;
59546;PMS5003;45368;55.002;-1.592;2023-03-31T02:00:47;16;13;
59546;PMS5003;45368;55.002;-1.592;2023-03-31T02:03:19;17;13;
59546;PMS5003;45368;55.002;-1.592;2023-03-31T02:06:53;20;16;
59546;PMS5003;45368;55.002;-1.592;2023-03-31T02:09:25;15;12;
59546;PMS5003;45368;55.002;-1.592;2023-03-31T02:11:57;17;14;
59546;PMS5003;45368;55.002;-1.592;2023-03-31T02:14:27;13;9;
59546;PMS5003;45368;55.002;-1.592;2023-03-31T02:16:57;12;9;
59546;PMS5003;45368;55.002;-1.592;2023-03-31T02:19:26;14;11;
59546;PMS5003;45368;55.002;-1.592;2023-03-31T02:21:57;10;8;
59546;PMS5003;45368;55.002;-1.592;2023-03-31T02:24:26;10;8;
59546;PMS5003;45368;55.002;-1.592;2023-03-31T02:26:58;9;7;
59546;PMS5003;45368;55.002;-1.592;2023-03-31T02:29:30;6;5;
59546;PMS5003;45368;55.002;-1.592;2023-03-31T02:31:59;7;6;
59546;PMS5003;45368;55.002;-1.592;2023-03-31T02:34:33;10;9;
59546;PMS5003;45368;55.002;-1.592;2023-03-31T02:36:59;5;5;
59546;PMS5003;45368;55.002;-1.592;2023-03-31T02:39:28;10;8;
59546;PMS5003;45368;55.002;-1.592;2023-03-31T02:41:59;8;7;
59546;PMS5003;45368;55.002;-1.592;2023-03-31T02:44:27;5;4;
59546;PMS5003;45368;55.002;-1.592;2023-03-31T02:46:54;7;6;
59546;PMS5003;45368;55.002;-1.592;2023-03-31T02:49:22;7;6;
59546;PMS5003;45368;55.002;-1.592;2023-03-31T02:51:54;6;5;
59546;PMS5003;45368;55.002;-1.592;2023-03-31T02:54:45;4;4;
59546;PMS5003;45368;55.002;-1.592;2023-03-31T02:57:32;5;4;
59546;PMS5003;45368;55.002;-1.592;2023-03-31T03:00:12;8;4;
59546;PMS5003;45368;55.002;-1.592;2023-03-31T03:02:52;9;6;
59546;PMS5003;45368;55.002;-1.592;2023-03-31T03:05:35;9;7;
59546;PMS5003;45368;55.002;-1.592;2023-03-31T03:08:10;6;4;
59546;PMS5003;45368;55.002;-1.592;2023-03-31T03:10:51;5;4;
59546;PMS5003;45368;55.002;-1.592;2023-03-31T03:13:27;5;5;
59546;PMS5003;45368;55.002;-1.592;2023-03-31T03:16:02;6;5;
59546;PMS5003;45368;55.002;-1.592;2023-03-31T03:18:35;7;5;
59546;PMS5003;45368;55.002;-1.592;2023-03-31T03:21:03;7;5;
59546;PMS5003;45368;55.002;-1.592;2023-03-31T03:23:30;9;8;
59546;PMS5003;45368;55.002;-1.592;2023-03-31T03:25:57;7;7;
59546;PMS5003;45368;55.002;-1.592;2023-03-31T03:28:25;6;4;
59546;PMS5003;45368;55.002;-1.592;2023-03-31T03:30:51;9;8;
59546;PMS5003;45368;55.002;-1.592;2023-03-31T03:33:18;6;6;
59546;PMS5003;45368;55.002;-1.592;2023-03-31T03:35:46;8;6;
59546;PMS5003;45368;55.002;-1.592;2023-03-31T03:38:13;10;7;
59546;PMS5003;45368;55.002;-1.592;2023-03-31T03:40:40;3;3;
59546;PMS5003;45368;55.002;-1.592;2023-03-31T03:43:08;8;6;
59546;PMS5003;45368;55.002;-1.592;2023-03-31T03:45:35;8;7;
59546;PMS5003;45368;55.002;-1.592;2023-03-31T03:48:02;8;7;
59546;PMS5003;45368;55.002;-1.592;2023-03-31T03:50:29;6;5;
59546;PMS5003;45368;55.002;-1.592;2023-03-31T03:52:56;8;5;
59546;PMS5003;45368;55.002;-1.592;2023-03-31T03:55:23;9;8;
59546;PMS5003;45368;55.002;-1.592;2023-03-31T03:57:51;12;9;
59546;PMS5003;45368;55.002;-1.592;2023-03-31T04:00:18;11;10;
59546;PMS5003;45368;55.002;-1.592;2023-03-31T04:02:45;11;8;
59546;PMS5003;45368;55.002;-1.592;2023-03-31T04:05:12;8;6;
59546;PMS5003;45368;55.002;-1.592;2023-03-31T04:07:39;7;6;
59546;PMS5003;45368;55.002;-1.592;2023-03-31T04:10:11;10;7;
59546;PMS5003;45368;55.002;-1.592;2023-03-31T04:12:38;6;5;
59546;PMS5003;45368;55.002;-1.592;2023-03-31T04:15:06;10;9;
59546;PMS5003;45368;55.002;-1.592;2023-03-31T04:17:34;11;9;
59546;PMS5003;45368;55.002;-1.592;2023-03-31T04:20:02;8;6;
59546;PMS5003;45368;55.002;-1.592;2023-03-31T04:22:31;11;9;
59546;PMS5003;45368;55.002;-1.592;2023-03-31T04:24:58;12;10;
59546;PMS5003;45368;55.002;-1.592;2023-03-31T04:27:25;10;7;
59546;PMS5003;45368;55.002;-1.592;2023-03-31T04:29:52;11;9;
59546;PMS5003;45368;55.002;-1.592;2023-03-31T04:32:20;7;6;
59546;PMS5003;45368;55.002;-1.592;2023-03-31T04:34:47;10;9;
59546;PMS5003;45368;55.002;-1.592;2023-03-31T04:37:15;8;6;
59546;PMS5003;45368;55.002;-1.592;2023-03-31T04:39:45;9;9;
59546;PMS5003;45368;55.002;-1.592;2023-03-31T04:42:12;12;9;
59546;PMS5003;45368;55.002;-1.592;2023-03-31T04:44:39;9;9;
59546;PMS5003;45368;55.002;-1.592;2023-03-31T04:47:06;8;8;
59546;PMS5003;45368;55.002;-1.592;2023-03-31T04:49:37;11;8;
59546;PMS5003;45368;55.002;-1.592;2023-03-31T04:52:04;11;8;
59546;PMS5003;45368;55.002;-1.592;2023-03-31T04:54:38;11;10;
59546;PMS5003;45368;55.002;-1.592;2023-03-31T04:57:05;9;8;
59546;PMS5003;45368;55.002;-1.592;2023-03-31T04:59:33;9;8;
59546;PMS5003;45368;55.002;-1.592;2023-03-31T05:02:00;11;8;
59546;PMS5003;45368;55.002;-1.592;2023-03-31T05:04:28;11;9;
59546;PMS5003;45368;55.002;-1.592;2023-03-31T05:06:55;13;10;
59546;PMS5003;45368;55.002;-1.592;2023-03-31T05:09:22;17;12;
59546;PMS5003;45368;55.002;-1.592;2023-03-31T05:11:49;15;13;
59546;PMS5003;45368;55.002;-1.592;2023-03-31T05:14:17;15;13;
59546;PMS5003;45368;55.002;-1.592;2023-03-31T05:16:45;11;10;
59546;PMS5003;45368;55.002;-1.592;2023-03-31T05:19:12;24;18;
59546;PMS5003;45368;55.002;-1.592;2023-03-31T05:21:40;18;16;
59546;PMS5003;45368;55.002;-1.592;2023-03-31T05:24:07;17;17;
59546;PMS5003;45368;55.002;-1.592;2023-03-31T05:26:34;18;14;
59546;PMS5003;45368;55.002;-1.592;2023-03-31T05:29:01;16;14;
59546;PMS5003;45368;55.002;-1.592;2023-03-31T05:31:28;15;14;
59546;PMS5003;45368;55.002;-1.592;2023-03-31T05:33:55;20;18;
59546;PMS5003;45368;55.002;-1.592;2023-03-31T05:36:22;22;16;
59546;PMS5003;45368;55.002;-1.592;2023-03-31T05:38:49;22;20;
59546;PMS5003;45368;55.002;-1.592;2023-03-31T05:41:17;21;19;
59546;PMS5003;45368;55.002;-1.592;2023-03-31T05:43:44;22;20;
59546;PMS5003;45368;55.002;-1.592;2023-03-31T05:46:11;18;16;
59546;PMS5003;45368;55.002;-1.592;2023-03-31T05:48:38;18;18;
59546;PMS5003;45368;55.002;-1.592;2023-03-31T05:51:10;22;19;
59546;PMS5003;45368;55.002;-1.592;2023-03-31T05:53:38;17;16;
59546;PMS5003;45368;55.002;-1.592;2023-03-31T05:56:05;20;17;
59546;PMS5003;45368;55.002;-1.592;2023-03-31T05:58:33;19;17;
59546;PMS5003;45368;55.002;-1.592;2023-03-31T06:01:02;21;19;
59546;PMS5003;45368;55.002;-1.592;2023-03-31T06:03:30;25;20;
59546;PMS5003;45368;55.002;-1.592;2023-03-31T06:05:58;25;19;
59546;PMS5003;45368;55.002;-1.592;2023-03-31T06:08:26;19;17;
59546;PMS5003;45368;55.002;-1.592;2023-03-31T06:10:53;28;23;
59546;PMS5003;45368;55.002;-1.592;2023-03-31T06:13:20;24;21;
59546;PMS5003;45368;55.002;-1.592;2023-03-31T06:15:52;24;20;
59546;PMS5003;45368;55.002;-1.592;2023-03-31T06:18:20;23;17;
59546;PMS5003;45368;55.002;-1.592;2023-03-31T06:20:47;20;15;
59546;PMS5003;45368;55.002;-1.592;2023-03-31T06:23:14;20;16;
59546;PMS5003;45368;55.002;-1.592;2023-03-31T06:25:41;20;17;
59546;PMS5003;45368;55.002;-1.592;2023-03-31T06:28:08;19;16;
59546;PMS5003;45368;55.002;-1.592;2023-03-31T06:30:35;19;13;
59546;PMS5003;45368;55.002;-1.592;2023-03-31T06:33:03;14;11;
59546;PMS5003;45368;55.002;-1.592;2023-03-31T06:35:31;15;12;
59546;PMS5003;45368;55.002;-1.592;2023-03-31T06:37:59;23;15;
59546;PMS5003;45368;55.002;-1.592;2023-03-31T06:40:26;29;20;
59546;PMS5003;45368;55.002;-1.592;2023-03-31T06:42:53;16;11;
59546;PMS5003;45368;55.002;-1.592;2023-03-31T06:45:21;18;13;
59546;PMS5003;45368;55.002;-1.592;2023-03-31T06:47:47;16;12;
59546;PMS5003;45368;55.002;-1.592;2023-03-31T06:50:15;17;15;
59546;PMS5003;45368;55.002;-1.592;2023-03-31T06:52:43;13;11;
59546;PMS5003;45368;55.002;-1.592;2023-03-31T06:55:09;14;12;
59546;PMS5003;45368;55.002;-1.592;2023-03-31T06:57:36;14;11;
59546;PMS5003;45368;55.002;-1.592;2023-03-31T07:00:04;18;13;
59546;PMS5003;45368;55.002;-1.592;2023-03-31T07:02:34;14;10;
59546;PMS5003;45368;55.002;-1.592;2023-03-31T07:05:01;12;10;
59546;PMS5003;45368;55.002;-1.592;2023-03-31T07:07:29;21;15;
59546;PMS5003;45368;55.002;-1.592;2023-03-31T07:09:57;28;21;
59546;PMS5003;45368;55.002;-1.592;2023-03-31T07:12:24;24;15;
59546;PMS5003;45368;55.002;-1.592;2023-03-31T07:14:52;18;11;
59546;PMS5003;45368;55.002;-1.592;2023-03-31T07:17:19;10;8;
59546;PMS5003;45368;55.002;-1.592;2023-03-31T07:19:47;17;12;
59546;PMS5003;45368;55.002;-1.592;2023-03-31T07:22:14;19;12;
59546;PMS5003;45368;55.002;-1.592;2023-03-31T07:24:41;15;11;
59546;PMS5003;45368;55.002;-1.592;2023-03-31T07:27:08;14;11;
59546;PMS5003;45368;55.002;-1.592;2023-03-31T07:29:36;12;8;
59546;PMS5003;45368;55.002;-1.592;2023-03-31T07:32:03;13;8;
59546;PMS5003;45368;55.002;-1.592;2023-03-31T07:34:30;13;9;
59546;PMS5003;45368;55.002;-1.592;2023-03-31T07:36:57;12;9;
59546;PMS5003;45368;55.002;-1.592;2023-03-31T07:39:25;9;8;
59546;PMS5003;45368;55.002;-1.592;2023-03-31T07:41:52;15;8;
59546;PMS5003;45368;55.002;-1.592;2023-03-31T07:44:19;9;9;
59546;PMS5003;45368;55.002;-1.592;2023-03-31T07:46:46;13;9;
59546;PMS5003;45368;55.002;-1.592;2023-03-31T07:49:13;13;7;
59546;PMS5003;45368;55.002;-1.592;2023-03-31T07:51:42;11;8;
59546;PMS5003;45368;55.002;-1.592;2023-03-31T07:54:09;11;9;
59546;PMS5003;45368;55.002;-1.592;2023-03-31T07:56:36;11;9;
59546;PMS5003;45368;55.002;-1.592;2023-03-31T07:59:04;15;10;
59546;PMS5003;45368;55.002;-1.592;2023-03-31T08:01:30;13;11;
59546;PMS5003;45368;55.002;-1.592;2023-03-31T08:03:57;17;13;
59546;PMS5003;45368;55.002;-1.592;2023-03-31T08:06:25;11;10;
59546;PMS5003;45368;55.002;-1.592;2023-03-31T08:08:52;15;9;
59546;PMS5003;45368;55.002;-1.592;2023-03-31T08:11:19;17;12;
59546;PMS5003;45368;55.002;-1.592;2023-03-31T08:13:46;16;12;
59546;PMS5003;45368;55.002;-1.592;2023-03-31T08:16:14;24;14;
59546;PMS5003;45368;55.002;-1.592;2023-03-31T08:18:41;13;10;
59546;PMS5003;45368;55.002;-1.592;2023-03-31T08:21:09;13;10;
59546;PMS5003;45368;55.002;-1.592;2023-03-31T08:23:36;11;9;
59546;PMS5003;45368;55.002;-1.592;2023-03-31T08:26:06;11;11;
59546;PMS5003;45368;55.002;-1.592;2023-03-31T08:28:35;15;11;
59546;PMS5003;45368;55.002;-1.592;2023-03-31T08:31:03;20;13;
59546;PMS5003;45368;55.002;-1.592;2023-03-31T08:33:31;13;10;
59546;PMS5003;45368;55.002;-1.592;2023-03-31T08:36:00;10;8;
59546;PMS5003;45368;55.002;-1.592;2023-03-31T08:38:28;13;8;
59546;PMS5003;45368;55.002;-1.592;2023-03-31T08:40:59;10;7;
59546;PMS5003;45368;55.002;-1.592;2023-03-31T08:43:29;12;9;
59546;PMS5003;45368;55.002;-1.592;2023-03-31T08:46:00;13;9;
59546;PMS5003;45368;55.002;-1.592;2023-03-31T08:48:29;10;9;
59546;PMS5003;45368;55.002;-1.592;2023-03-31T08:51:08;12;9;
59546;PMS5003;45368;55.002;-1.592;2023-03-31T08:53:42;13;10;
59546;PMS5003;45368;55.002;-1.592;2023-03-31T08:56:14;12;9;
59546;PMS5003;45368;55.002;-1.592;2023-03-31T08:58:43;8;7;
59546;PMS5003;45368;55.002;-1.592;2023-03-31T09:01:16;11;8;
59546;PMS5003;45368;55.002;-1.592;2023-03-31T09:03:55;11;9;
59546;PMS5003;45368;55.002;-1.592;2023-03-31T09:06:41;15;9;
59546;PMS5003;45368;55.002;-1.592;2023-03-31T09:09:16;10;8;
59546;PMS5003;45368;55.002;-1.592;2023-03-31T09:11:51;14;11;
59546;PMS5003;45368;55.002;-1.592;2023-03-31T09:14:24;16;10;
59546;PMS5003;45368;55.002;-1.592;2023-03-31T09:16:58;8;6;
59546;PMS5003;45368;55.002;-1.592;2023-03-31T09:19:37;9;7;
59546;PMS5003;45368;55.002;-1.592;2023-03-31T09:22:10;9;8;
59546;PMS5003;45368;55.002;-1.592;2023-03-31T09:24:45;11;10;
59546;PMS5003;45368;55.002;-1.592;2023-03-31T09:27:18;12;9;
59546;PMS5003;45368;55.002;-1.592;2023-03-31T09:29:48;11;11;
59546;PMS5003;45368;55.002;-1.592;2023-03-31T09:32:19;13;9;
59546;PMS5003;45368;55.002;-1.592;2023-03-31T09:34:50;10;8;
59546;PMS5003;45368;55.002;-1.592;2023-03-31T09:37:44;11;9;
59546;PMS5003;45368;55.002;-1.592;2023-03-31T09:40:15;11;9;
59546;PMS5003;45368;55.002;-1.592;2023-03-31T09:42:44;13;8;
59546;PMS5003;45368;55.002;-1.592;2023-03-31T09:45:14;10;9;
59546;PMS5003;45368;55.002;-1.592;2023-03-31T09:47:43;12;7;
59546;PMS5003;45368;55.002;-1.592;2023-03-31T09:50:13;12;10;
59546;PMS5003;45368;55.002;-1.592;2023-03-31T09:52:42;13;8;
59546;PMS5003;45368;55.002;-1.592;2023-03-31T09:55:17;8;7;
59546;PMS5003;45368;55.002;-1.592;2023-03-31T09:57:47;12;8;
59546;PMS5003;45368;55.002;-1.592;2023-03-31T10:00:15;6;5;
59546;PMS5003;45368;55.002;-1.592;2023-03-31T10:02:47;8;6;
59546;PMS5003;45368;55.002;-1.592;2023-03-31T10:05:23;12;7;
59546;PMS5003;45368;55.002;-1.592;2023-03-31T10:08:08;13;8;
59546;PMS5003;45368;55.002;-1.592;2023-03-31T10:10:46;11;8;
59546;PMS5003;45368;55.002;-1.592;2023-03-31T10:13:15;8;6;
59546;PMS5003;45368;55.002;-1.592;2023-03-31T10:15:44;12;8;
59546;PMS5003;45368;55.002;-1.592;2023-03-31T10:18:12;10;10;
59546;PMS5003;45368;55.002;-1.592;2023-03-31T10:20:43;11;11;
59546;PMS5003;45368;55.002;-1.592;2023-03-31T10:23:15;16;11;
59546;PMS5003;45368;55.002;-1.592;2023-03-31T10:25:43;10;7;
59546;PMS5003;45368;55.002;-1.592;2023-03-31T10:28:14;14;9;
59546;PMS5003;45368;55.002;-1.592;2023-03-31T10:30:46;17;10;
59546;PMS5003;45368;55.002;-1.592;2023-03-31T10:33:15;14;10;
59546;PMS5003;45368;55.002;-1.592;2023-03-31T10:35:46;12;9;
59546;PMS5003;45368;55.002;-1.592;2023-03-31T10:38:16;12;8;
59546;PMS5003;45368;55.002;-1.592;2023-03-31T10:40:49;10;7;
59546;PMS5003;45368;55.002;-1.592;2023-03-31T10:43:20;6;6;
59546;PMS5003;45368;55.002;-1.592;2023-03-31T10:45:53;13;9;
59546;PMS5003;45368;55.002;-1.592;2023-03-31T10:48:23;10;9;
59546;PMS5003;45368;55.002;-1.592;2023-03-31T10:50:51;7;7;
59546;PMS5003;45368;55.002;-1.592;2023-03-31T10:53:19;13;9;
59546;PMS5003;45368;55.002;-1.592;2023-03-31T10:55:51;15;12;
59546;PMS5003;45368;55.002;-1.592;2023-03-31T10:58:35;26;10;
59546;PMS5003;45368;55.002;-1.592;2023-03-31T11:01:12;14;13;
59546;PMS5003;45368;55.002;-1.592;2023-03-31T11:03:52;9;9;
59546;PMS5003;45368;55.002;-1.592;2023-03-31T11:06:28;9;7;
59546;PMS5003;45368;55.002;-1.592;2023-03-31T11:09:09;21;11;
59546;PMS5003;45368;55.002;-1.592;2023-03-31T11:11:51;18;11;
59546;PMS5003;45368;55.002;-1.592;2023-03-31T11:14:28;9;8;
59546;PMS5003;45368;55.002;-1.592;2023-03-31T11:17:08;15;11;
59546;PMS5003;45368;55.002;-1.592;2023-03-31T11:19:51;16;10;
59546;PMS5003;45368;55.002;-1.592;2023-03-31T11:22:26;8;8;
59546;PMS5003;45368;55.002;-1.592;2023-03-31T11:25:05;13;10;
59546;PMS5003;45368;55.002;-1.592;2023-03-31T11:27:47;15;11;
59546;PMS5003;45368;55.002;-1.592;2023-03-31T11:30:23;14;9;
59546;PMS5003;45368;55.002;-1.592;2023-03-31T11:33:00;17;14;
59546;PMS5003;45368;55.002;-1.592;2023-03-31T11:35:49;18;15;
59546;PMS5003;45368;55.002;-1.592;2023-03-31T11:38:32;17;12;
59546;PMS5003;45368;55.002;-1.592;2023-03-31T11:41:09;16;10;
59546;PMS5003;45368;55.002;-1.592;2023-03-31T11:43:41;12;9;
59546;PMS5003;45368;55.002;-1.592;2023-03-31T11:43:44;12;9;
59546;PMS5003;45368;55.002;-1.592;2023-03-31T11:46:15;13;11;
59546;PMS5003;45368;55.002;-1.592;2023-03-31T11:48:49;16;14;
59546;PMS5003;45368;55.002;-1.592;2023-03-31T11:51:22;13;11;
59546;PMS5003;45368;55.002;-1.592;2023-03-31T11:53:53;15;12;
59546;PMS5003;45368;55.002;-1.592;2023-03-31T11:56:24;13;11;
59546;PMS5003;45368;55.002;-1.592;2023-03-31T11:58:56;17;10;
59546;PMS5003;45368;55.002;-1.592;2023-03-31T12:01:27;15;14;
59546;PMS5003;45368;55.002;-1.592;2023-03-31T12:04:00;16;10;
59546;PMS5003;45368;55.002;-1.592;2023-03-31T12:06:32;16;13;
59546;PMS5003;45368;55.002;-1.592;2023-03-31T12:09:09;16;14;
59546;PMS5003;45368;55.002;-1.592;2023-03-31T12:11:43;18;12;
59546;PMS5003;45368;55.002;-1.592;2023-03-31T12:14:21;16;13;
59546;PMS5003;45368;55.002;-1.592;2023-03-31T12:16:57;15;13;
59546;PMS5003;45368;55.002;-1.592;2023-03-31T12:19:32;13;12;
59546;PMS5003;45368;55.002;-1.592;2023-03-31T12:22:09;18;14;
59546;PMS5003;45368;55.002;-1.592;2023-03-31T12:24:41;14;11;
59546;PMS5003;45368;55.002;-1.592;2023-03-31T12:27:10;26;13;
59546;PMS5003;45368;55.002;-1.592;2023-03-31T12:29:44;15;13;
59546;PMS5003;45368;55.002;-1.592;2023-03-31T12:32:19;21;16;
59546;PMS5003;45368;55.002;-1.592;2023-03-31T12:34:52;19;13;
59546;PMS5003;45368;55.002;-1.592;2023-03-31T12:37:30;18;13;
59546;PMS5003;45368;55.002;-1.592;2023-03-31T12:40:17;15;13;
59546;PMS5003;45368;55.002;-1.592;2023-03-31T12:42:56;18;15;
59546;PMS5003;45368;55.002;-1.592;2023-03-31T12:45:34;17;14;
59546;PMS5003;45368;55.002;-1.592;2023-03-31T12:48:09;24;17;
59546;PMS5003;45368;55.002;-1.592;2023-03-31T12:51:01;17;15;
59546;PMS5003;45368;55.002;-1.592;2023-03-31T12:53:41;16;11;
59546;PMS5003;45368;55.002;-1.592;2023-03-31T12:56:18;20;18;
59546;PMS5003;45368;55.002;-1.592;2023-03-31T12:58:45;23;17;
59546;PMS5003;45368;55.002;-1.592;2023-03-31T13:01:17;21;17;
59546;PMS5003;45368;55.002;-1.592;2023-03-31T13:03:47;25;18;
59546;PMS5003;45368;55.002;-1.592;2023-03-31T13:09:02;22;18;
59546;PMS5003;45368;55.002;-1.592;2023-03-31T13:11:34;22;15;
59546;PMS5003;45368;55.002;-1.592;2023-03-31T13:14:05;19;14;
59546;PMS5003;45368;55.002;-1.592;2023-03-31T13:16:40;17;15;
59546;PMS5003;45368;55.002;-1.592;2023-03-31T13:19:08;23;19;
59546;PMS5003;45368;55.002;-1.592;2023-03-31T13:21:51;20;16;
59546;PMS5003;45368;55.002;-1.592;2023-03-31T13:24:20;22;17;
59546;PMS5003;45368;55.002;-1.592;2023-03-31T13:26:48;20;14;
59546;PMS5003;45368;55.002;-1.592;2023-03-31T13:29:19;18;15;
59546;PMS5003;45368;55.002;-1.592;2023-03-31T13:32:21;20;17;
59546;PMS5003;45368;55.002;-1.592;2023-03-31T13:34:50;20;16;
59546;PMS5003;45368;55.002;-1.592;2023-03-31T13:37:28;20;15;
59546;PMS5003;45368;55.002;-1.592;2023-03-31T13:40:07;19;17;
59546;PMS5003;45368;55.002;-1.592;2023-03-31T13:42:52;21;17;
59546;PMS5003;45368;55.002;-1.592;2023-03-31T13:45:41;20;13;
59546;PMS5003;45368;55.002;-1.592;2023-03-31T13:48:23;15;14;
59546;PMS5003;45368;55.002;-1.592;2023-03-31T13:52:08;19;16;
59546;PMS5003;45368;55.002;-1.592;2023-03-31T13:54:44;16;13;
59546;PMS5003;45368;55.002;-1.592;2023-03-31T13:57:34;16;14;
59546;PMS5003;45368;55.002;-1.592;2023-03-31T14:00:40;15;12;
59546;PMS5003;45368;55.002;-1.592;2023-03-31T14:03:19;18;16;
59546;PMS5003;45368;55.002;-1.592;2023-03-31T14:05:55;19;13;
59546;PMS5003;45368;55.002;-1.592;2023-03-31T14:08:31;24;20;
59546;PMS5003;45368;55.002;-1.592;2023-03-31T14:11:15;21;19;
59546;PMS5003;45368;55.002;-1.592;2023-03-31T14:13:57;21;18;
59546;PMS5003;45368;55.002;-1.592;2023-03-31T14:16:26;30;22;
59546;PMS5003;45368;55.002;-1.592;2023-03-31T14:18:58;25;22;
59546;PMS5003;45368;55.002;-1.592;2023-03-31T14:21:37;14;13;
59546;PMS5003;45368;55.002;-1.592;2023-03-31T14:24:12;19;17;
59546;PMS5003;45368;55.002;-1.592;2023-03-31T14:26:50;19;18;
59546;PMS5003;45368;55.002;-1.592;2023-03-31T14:29:28;15;12;
59546;PMS5003;45368;55.002;-1.592;2023-03-31T14:32:06;16;13;
59546;PMS5003;45368;55.002;-1.592;2023-03-31T14:34:50;19;17;
59546;PMS5003;45368;55.002;-1.592;2023-03-31T14:37:25;18;16;
59546;PMS5003;45368;55.002;-1.592;2023-03-31T14:39:52;11;10;
59546;PMS5003;45368;55.002;-1.592;2023-03-31T14:42:22;16;12;
59546;PMS5003;45368;55.002;-1.592;2023-03-31T14:44:54;20;16;
59546;PMS5003;45368;55.002;-1.592;2023-03-31T14:47:23;15;13;
59546;PMS5003;45368;55.002;-1.592;2023-03-31T14:49:57;17;15;
59546;PMS5003;45368;55.002;-1.592;2023-03-31T14:52:28;13;11;
59546;PMS5003;45368;55.002;-1.592;2023-03-31T14:54:57;13;13;
59546;PMS5003;45368;55.002;-1.592;2023-03-31T14:57:26;18;13;
59546;PMS5003;45368;55.002;-1.592;2023-03-31T14:59:56;14;11;
59546;PMS5003;45368;55.002;-1.592;2023-03-31T15:02:28;13;11;
59546;PMS5003;45368;55.002;-1.592;2023-03-31T15:04:57;9;8;
59546;PMS5003;45368;55.002;-1.592;2023-03-31T15:07:29;12;11;
59546;PMS5003;45368;55.002;-1.592;2023-03-31T15:09:57;13;11;
59546;PMS5003;45368;55.002;-1.592;2023-03-31T15:12:25;14;10;
59546;PMS5003;45368;55.002;-1.592;2023-03-31T15:14:55;15;12;
59546;PMS5003;45368;55.002;-1.592;2023-03-31T15:17:29;10;9;
59546;PMS5003;45368;55.002;-1.592;2023-03-31T15:20:19;11;8;
59546;PMS5003;45368;55.002;-1.592;2023-03-31T15:22:51;8;8;
59546;PMS5003;45368;55.002;-1.592;2023-03-31T15:25:18;15;13;
59546;PMS5003;45368;55.002;-1.592;2023-03-31T15:27:46;20;15;
59546;PMS5003;45368;55.002;-1.592;2023-03-31T15:30:19;15;13;
59546;PMS5003;45368;55.002;-1.592;2023-03-31T15:32:48;12;10;
59546;PMS5003;45368;55.002;-1.592;2023-03-31T15:35:19;14;12;
59546;PMS5003;45368;55.002;-1.592;2023-03-31T15:37:49;11;8;
59546;PMS5003;45368;55.002;-1.592;2023-03-31T15:40:20;14;9;
59546;PMS5003;45368;55.002;-1.592;2023-03-31T15:42:50;20;16;
59546;PMS5003;45368;55.002;-1.592;2023-03-31T15:45:35;13;11;
59546;PMS5003;45368;55.002;-1.592;2023-03-31T15:48:08;14;9;
59546;PMS5003;45368;55.002;-1.592;2023-03-31T15:50:41;8;7;
59546;PMS5003;45368;55.002;-1.592;2023-03-31T15:53:20;13;10;
59546;PMS5003;45368;55.002;-1.592;2023-03-31T15:55:52;8;7;
59546;PMS5003;45368;55.002;-1.592;2023-03-31T15:58:23;15;13;
59546;PMS5003;45368;55.002;-1.592;2023-03-31T16:01:11;12;10;
59546;PMS5003;45368;55.002;-1.592;2023-03-31T16:03:41;15;9;
59546;PMS5003;45368;55.002;-1.592;2023-03-31T16:06:09;11;8;
59546;PMS5003;45368;55.002;-1.592;2023-03-31T16:08:45;15;12;
59546;PMS5003;45368;55.002;-1.592;2023-03-31T16:11:16;10;7;
59546;PMS5003;45368;55.002;-1.592;2023-03-31T16:13:47;14;7;
59546;PMS5003;45368;55.002;-1.592;2023-03-31T16:16:19;9;8;
59546;PMS5003;45368;55.002;-1.592;2023-03-31T16:18:49;15;10;
59546;PMS5003;45368;55.002;-1.592;2023-03-31T16:21:19;8;6;
59546;PMS5003;45368;55.002;-1.592;2023-03-31T16:23:49;15;9;
59546;PMS5003;45368;55.002;-1.592;2023-03-31T16:26:21;18;11;
59546;PMS5003;45368;55.002;-1.592;2023-03-31T16:28:51;18;11;
59546;PMS5003;45368;55.002;-1.592;2023-03-31T16:31:28;12;10;
59546;PMS5003;45368;55.002;-1.592;2023-03-31T16:33:57;12;8;
59546;PMS5003;45368;55.002;-1.592;2023-03-31T16:36:31;13;8;
59546;PMS5003;45368;55.002;-1.592;2023-03-31T16:38:58;8;8;
59546;PMS5003;45368;55.002;-1.592;2023-03-31T16:41:26;12;8;
59546;PMS5003;45368;55.002;-1.592;2023-03-31T16:43:54;9;8;
59546;PMS5003;45368;55.002;-1.592;2023-03-31T16:46:22;12;9;
59546;PMS5003;45368;55.002;-1.592;2023-03-31T16:48:50;12;9;
59546;PMS5003;45368;55.002;-1.592;2023-03-31T16:51:18;16;11;